Scotch Plains, New Jersey
Current Conditions -  °F | °C
As of 11:35 AM on Thursday 29 Jan 2015 (Local Time) from KLDJ Reporting Station
Clear Clear  
Wind Chill:   Ceiling: Unl
Heat Index:   Visibility: 10mi
Dew Point: -13°   Wind: 0mph
Humidity: 37%   Direction: NA
Pressure: 30.32"   Gusts: NA
Location:  40.65°N, 74.4°W
Report Text: KLDJ 291635Z AUTO 00000KT 10SM CLR 01/M13 A3032 RMK AO2 T00051127
Loading
Personal Weather Stations






























Interactive Weather Map New forecast layout! Learn more

10-Day Weather Forecast

Advertisements
Track Severe Weather on mobile